sensor_id;sensor_type;location;lat;lon;timestamp;P1;durP1;ratioP1;P2;durP2;ratioP2
18677;SDS011;9469;51.114;13.914;2023-07-29T00:02:00;2.63;;;1.30;;
18677;SDS011;9469;51.114;13.914;2023-07-29T00:07:09;1.70;;;1.60;;
18677;SDS011;9469;51.114;13.914;2023-07-29T00:12:18;1.33;;;1.17;;
18677;SDS011;9469;51.114;13.914;2023-07-29T00:17:24;1.60;;;1.50;;
18677;SDS011;9469;51.114;13.914;2023-07-29T00:22:33;1.60;;;1.30;;
18677;SDS011;9469;51.114;13.914;2023-07-29T00:27:39;2.17;;;1.97;;
18677;SDS011;9469;51.114;13.914;2023-07-29T00:32:46;2.47;;;1.60;;
18677;SDS011;9469;51.114;13.914;2023-07-29T00:37:56;3.67;;;1.70;;
18677;SDS011;9469;51.114;13.914;2023-07-29T00:43:01;3.30;;;1.70;;
18677;SDS011;9469;51.114;13.914;2023-07-29T00:48:09;1.80;;;1.70;;
18677;SDS011;9469;51.114;13.914;2023-07-29T00:53:19;1.40;;;1.30;;
18677;SDS011;9469;51.114;13.914;2023-07-29T00:58:24;2.50;;;1.90;;
18677;SDS011;9469;51.114;13.914;2023-07-29T01:03:29;1.60;;;1.50;;
18677;SDS011;9469;51.114;13.914;2023-07-29T01:08:42;1.60;;;1.40;;
18677;SDS011;9469;51.114;13.914;2023-07-29T01:13:59;4.50;;;1.73;;
18677;SDS011;9469;51.114;13.914;2023-07-29T01:19:19;1.60;;;1.50;;
18677;SDS011;9469;51.114;13.914;2023-07-29T01:24:42;2.00;;;1.70;;
18677;SDS011;9469;51.114;13.914;2023-07-29T01:29:49;1.47;;;1.37;;
18677;SDS011;9469;51.114;13.914;2023-07-29T01:34:59;1.60;;;1.50;;
18677;SDS011;9469;51.114;13.914;2023-07-29T01:40:12;1.77;;;1.67;;
18677;SDS011;9469;51.114;13.914;2023-07-29T01:45:18;1.37;;;1.27;;
18677;SDS011;9469;51.114;13.914;2023-07-29T01:50:23;1.83;;;1.50;;
18677;SDS011;9469;51.114;13.914;2023-07-29T01:55:34;2.60;;;1.70;;
18677;SDS011;9469;51.114;13.914;2023-07-29T02:00:39;1.40;;;1.30;;
18677;SDS011;9469;51.114;13.914;2023-07-29T02:05:44;2.50;;;1.30;;
18677;SDS011;9469;51.114;13.914;2023-07-29T02:10:52;1.60;;;1.50;;
18677;SDS011;9469;51.114;13.914;2023-07-29T02:15:57;1.53;;;1.30;;
18677;SDS011;9469;51.114;13.914;2023-07-29T02:21:02;1.60;;;1.50;;
18677;SDS011;9469;51.114;13.914;2023-07-29T02:26:10;2.13;;;1.80;;
18677;SDS011;9469;51.114;13.914;2023-07-29T02:31:16;1.27;;;1.17;;
18677;SDS011;9469;51.114;13.914;2023-07-29T02:36:22;3.30;;;1.70;;
18677;SDS011;9469;51.114;13.914;2023-07-29T02:41:30;1.90;;;1.43;;
18677;SDS011;9469;51.114;13.914;2023-07-29T02:46:35;2.20;;;1.67;;
18677;SDS011;9469;51.114;13.914;2023-07-29T02:51:44;2.67;;;1.50;;
18677;SDS011;9469;51.114;13.914;2023-07-29T02:56:52;3.83;;;1.60;;
18677;SDS011;9469;51.114;13.914;2023-07-29T03:01:58;1.97;;;1.80;;
18677;SDS011;9469;51.114;13.914;2023-07-29T03:07:03;1.73;;;1.63;;
18677;SDS011;9469;51.114;13.914;2023-07-29T03:12:11;1.50;;;1.30;;
18677;SDS011;9469;51.114;13.914;2023-07-29T03:17:17;1.87;;;1.50;;
18677;SDS011;9469;51.114;13.914;2023-07-29T03:22:24;4.13;;;1.33;;
18677;SDS011;9469;51.114;13.914;2023-07-29T03:27:32;1.93;;;1.40;;
18677;SDS011;9469;51.114;13.914;2023-07-29T03:32:40;1.70;;;1.50;;
18677;SDS011;9469;51.114;13.914;2023-07-29T03:37:48;1.50;;;1.07;;
18677;SDS011;9469;51.114;13.914;2023-07-29T03:42:57;1.27;;;1.17;;
18677;SDS011;9469;51.114;13.914;2023-07-29T03:48:02;2.20;;;1.60;;
18677;SDS011;9469;51.114;13.914;2023-07-29T03:53:09;1.23;;;1.13;;
18677;SDS011;9469;51.114;13.914;2023-07-29T03:58:17;2.40;;;1.30;;
18677;SDS011;9469;51.114;13.914;2023-07-29T04:03:24;1.30;;;1.20;;
18677;SDS011;9469;51.114;13.914;2023-07-29T04:08:30;1.40;;;1.00;;
18677;SDS011;9469;51.114;13.914;2023-07-29T04:13:38;1.00;;;1.00;;
18677;SDS011;9469;51.114;13.914;2023-07-29T04:18:43;2.10;;;1.30;;
18677;SDS011;9469;51.114;13.914;2023-07-29T04:23:50;1.30;;;1.20;;
18677;SDS011;9469;51.114;13.914;2023-07-29T04:28:58;1.33;;;0.90;;
18677;SDS011;9469;51.114;13.914;2023-07-29T04:34:04;3.03;;;1.00;;
18677;SDS011;9469;51.114;13.914;2023-07-29T04:39:10;2.00;;;1.10;;
18677;SDS011;9469;51.114;13.914;2023-07-29T04:44:18;1.87;;;1.47;;
18677;SDS011;9469;51.114;13.914;2023-07-29T04:49:24;1.87;;;1.10;;
18677;SDS011;9469;51.114;13.914;2023-07-29T04:54:29;1.90;;;0.80;;
18677;SDS011;9469;51.114;13.914;2023-07-29T04:59:37;1.00;;;0.90;;
18677;SDS011;9469;51.114;13.914;2023-07-29T05:04:45;0.70;;;0.70;;
18677;SDS011;9469;51.114;13.914;2023-07-29T05:09:50;1.63;;;1.10;;
18677;SDS011;9469;51.114;13.914;2023-07-29T05:15:00;1.13;;;0.97;;
18677;SDS011;9469;51.114;13.914;2023-07-29T05:20:09;0.80;;;0.80;;
18677;SDS011;9469;51.114;13.914;2023-07-29T05:25:17;1.00;;;0.90;;
18677;SDS011;9469;51.114;13.914;2023-07-29T05:30:28;2.13;;;0.90;;
18677;SDS011;9469;51.114;13.914;2023-07-29T05:35:37;1.00;;;0.87;;
18677;SDS011;9469;51.114;13.914;2023-07-29T05:40:42;0.90;;;0.80;;
18677;SDS011;9469;51.114;13.914;2023-07-29T05:45:50;1.73;;;0.80;;
18677;SDS011;9469;51.114;13.914;2023-07-29T05:50:56;0.90;;;0.90;;
18677;SDS011;9469;51.114;13.914;2023-07-29T05:56:01;0.80;;;0.80;;
18677;SDS011;9469;51.114;13.914;2023-07-29T06:01:09;0.93;;;0.90;;
18677;SDS011;9469;51.114;13.914;2023-07-29T06:06:15;1.47;;;1.00;;
18677;SDS011;9469;51.114;13.914;2023-07-29T06:11:20;1.73;;;0.80;;
18677;SDS011;9469;51.114;13.914;2023-07-29T06:16:29;0.90;;;0.70;;
18677;SDS011;9469;51.114;13.914;2023-07-29T06:21:34;1.50;;;0.80;;
18677;SDS011;9469;51.114;13.914;2023-07-29T06:26:40;1.73;;;1.08;;
18677;SDS011;9469;51.114;13.914;2023-07-29T06:31:47;0.70;;;0.70;;
18677;SDS011;9469;51.114;13.914;2023-07-29T06:36:53;0.75;;;0.60;;
18677;SDS011;9469;51.114;13.914;2023-07-29T06:41:58;2.38;;;0.70;;
18677;SDS011;9469;51.114;13.914;2023-07-29T06:47:06;1.77;;;0.70;;
18677;SDS011;9469;51.114;13.914;2023-07-29T06:52:12;0.80;;;0.70;;
18677;SDS011;9469;51.114;13.914;2023-07-29T06:57:17;1.25;;;0.75;;
18677;SDS011;9469;51.114;13.914;2023-07-29T07:02:25;1.45;;;0.75;;
18677;SDS011;9469;51.114;13.914;2023-07-29T07:07:33;3.22;;;0.90;;
18677;SDS011;9469;51.114;13.914;2023-07-29T07:12:38;1.67;;;0.70;;
18677;SDS011;9469;51.114;13.914;2023-07-29T07:17:45;2.95;;;0.93;;
18677;SDS011;9469;51.114;13.914;2023-07-29T07:22:51;0.98;;;0.90;;
18677;SDS011;9469;51.114;13.914;2023-07-29T07:27:59;1.48;;;0.98;;
18677;SDS011;9469;51.114;13.914;2023-07-29T07:33:07;0.98;;;0.90;;
18677;SDS011;9469;51.114;13.914;2023-07-29T07:38:13;1.38;;;1.00;;
18677;SDS011;9469;51.114;13.914;2023-07-29T07:43:21;0.93;;;0.93;;
18677;SDS011;9469;51.114;13.914;2023-07-29T07:48:29;1.83;;;0.77;;
18677;SDS011;9469;51.114;13.914;2023-07-29T07:53:35;1.80;;;0.70;;
18677;SDS011;9469;51.114;13.914;2023-07-29T07:58:42;1.92;;;0.93;;
18677;SDS011;9469;51.114;13.914;2023-07-29T08:03:50;1.08;;;0.70;;
18677;SDS011;9469;51.114;13.914;2023-07-29T08:08:55;1.13;;;1.00;;
18677;SDS011;9469;51.114;13.914;2023-07-29T08:14:00;0.80;;;0.80;;
18677;SDS011;9469;51.114;13.914;2023-07-29T08:19:10;1.05;;;0.73;;
18677;SDS011;9469;51.114;13.914;2023-07-29T08:24:16;0.80;;;0.80;;
18677;SDS011;9469;51.114;13.914;2023-07-29T08:29:21;1.75;;;1.00;;
18677;SDS011;9469;51.114;13.914;2023-07-29T08:34:29;1.13;;;0.80;;
18677;SDS011;9469;51.114;13.914;2023-07-29T08:39:37;0.60;;;0.60;;
18677;SDS011;9469;51.114;13.914;2023-07-29T08:44:43;1.25;;;0.90;;
18677;SDS011;9469;51.114;13.914;2023-07-29T08:49:51;0.68;;;0.68;;
18677;SDS011;9469;51.114;13.914;2023-07-29T08:54:58;1.08;;;0.90;;
18677;SDS011;9469;51.114;13.914;2023-07-29T09:00:06;0.80;;;0.75;;
18677;SDS011;9469;51.114;13.914;2023-07-29T09:05:16;0.73;;;0.70;;
18677;SDS011;9469;51.114;13.914;2023-07-29T09:10:21;0.50;;;0.50;;
18677;SDS011;9469;51.114;13.914;2023-07-29T09:15:28;0.40;;;0.40;;
18677;SDS011;9469;51.114;13.914;2023-07-29T09:20:40;0.80;;;0.70;;
18677;SDS011;9469;51.114;13.914;2023-07-29T09:25:46;0.60;;;0.60;;
18677;SDS011;9469;51.114;13.914;2023-07-29T09:30:51;0.88;;;0.80;;
18677;SDS011;9469;51.114;13.914;2023-07-29T09:35:59;0.50;;;0.50;;
18677;SDS011;9469;51.114;13.914;2023-07-29T09:41:04;0.55;;;0.55;;
18677;SDS011;9469;51.114;13.914;2023-07-29T09:46:09;1.67;;;0.55;;
18677;SDS011;9469;51.114;13.914;2023-07-29T09:51:17;0.63;;;0.60;;
18677;SDS011;9469;51.114;13.914;2023-07-29T09:56:24;0.85;;;0.85;;
18677;SDS011;9469;51.114;13.914;2023-07-29T10:01:30;5.18;;;0.90;;
18677;SDS011;9469;51.114;13.914;2023-07-29T10:06:43;3.30;;;0.80;;
18677;SDS011;9469;51.114;13.914;2023-07-29T10:11:51;1.27;;;1.02;;
18677;SDS011;9469;51.114;13.914;2023-07-29T10:16:56;1.08;;;0.80;;
18677;SDS011;9469;51.114;13.914;2023-07-29T10:22:05;1.92;;;1.10;;
18677;SDS011;9469;51.114;13.914;2023-07-29T10:27:11;1.25;;;1.15;;
18677;SDS011;9469;51.114;13.914;2023-07-29T10:32:19;1.10;;;1.00;;
18677;SDS011;9469;51.114;13.914;2023-07-29T10:37:29;0.93;;;0.70;;
18677;SDS011;9469;51.114;13.914;2023-07-29T10:42:35;1.45;;;1.02;;
18677;SDS011;9469;51.114;13.914;2023-07-29T10:47:43;1.45;;;1.08;;
18677;SDS011;9469;51.114;13.914;2023-07-29T10:52:51;2.22;;;1.00;;
18677;SDS011;9469;51.114;13.914;2023-07-29T10:58:04;3.45;;;0.93;;
18677;SDS011;9469;51.114;13.914;2023-07-29T11:03:22;1.15;;;0.88;;
18677;SDS011;9469;51.114;13.914;2023-07-29T11:08:33;0.88;;;0.80;;
18677;SDS011;9469;51.114;13.914;2023-07-29T11:13:39;2.42;;;1.00;;
18677;SDS011;9469;51.114;13.914;2023-07-29T11:18:48;0.57;;;0.57;;
18677;SDS011;9469;51.114;13.914;2023-07-29T11:23:56;0.60;;;0.60;;
18677;SDS011;9469;51.114;13.914;2023-07-29T11:29:02;0.65;;;0.60;;
18677;SDS011;9469;51.114;13.914;2023-07-29T11:34:07;0.70;;;0.70;;
18677;SDS011;9469;51.114;13.914;2023-07-29T11:39:17;1.02;;;0.60;;
18677;SDS011;9469;51.114;13.914;2023-07-29T11:44:23;1.35;;;0.95;;
18677;SDS011;9469;51.114;13.914;2023-07-29T11:49:30;0.65;;;0.60;;
18677;SDS011;9469;51.114;13.914;2023-07-29T11:54:40;1.08;;;0.90;;
18677;SDS011;9469;51.114;13.914;2023-07-29T11:59:57;3.08;;;1.33;;
18677;SDS011;9469;51.114;13.914;2023-07-29T12:05:09;1.25;;;0.70;;
18677;SDS011;9469;51.114;13.914;2023-07-29T12:10:20;0.82;;;0.63;;
18677;SDS011;9469;51.114;13.914;2023-07-29T12:15:26;1.77;;;0.93;;
18677;SDS011;9469;51.114;13.914;2023-07-29T12:20:33;1.52;;;0.80;;
18677;SDS011;9469;51.114;13.914;2023-07-29T12:25:43;2.05;;;0.90;;
18677;SDS011;9469;51.114;13.914;2023-07-29T12:30:48;1.75;;;0.85;;
18677;SDS011;9469;51.114;13.914;2023-07-29T12:35:58;1.23;;;0.80;;
18677;SDS011;9469;51.114;13.914;2023-07-29T12:41:07;1.00;;;0.70;;
18677;SDS011;9469;51.114;13.914;2023-07-29T12:46:12;1.77;;;0.70;;
18677;SDS011;9469;51.114;13.914;2023-07-29T12:51:17;2.08;;;1.00;;
18677;SDS011;9469;51.114;13.914;2023-07-29T12:56:25;0.98;;;0.88;;
18677;SDS011;9469;51.114;13.914;2023-07-29T13:01:31;2.50;;;0.80;;
18677;SDS011;9469;51.114;13.914;2023-07-29T13:06:39;1.45;;;0.75;;
18677;SDS011;9469;51.114;13.914;2023-07-29T13:11:47;2.03;;;0.70;;
18677;SDS011;9469;51.114;13.914;2023-07-29T13:16:52;0.80;;;0.73;;
18677;SDS011;9469;51.114;13.914;2023-07-29T13:21:57;1.15;;;0.98;;
18677;SDS011;9469;51.114;13.914;2023-07-29T13:27:06;0.60;;;0.60;;
18677;SDS011;9469;51.114;13.914;2023-07-29T13:32:13;2.40;;;0.82;;
18677;SDS011;9469;51.114;13.914;2023-07-29T13:37:18;0.90;;;0.85;;
18677;SDS011;9469;51.114;13.914;2023-07-29T13:42:28;0.90;;;0.80;;
18677;SDS011;9469;51.114;13.914;2023-07-29T13:47:33;5.10;;;0.85;;
18677;SDS011;9469;51.114;13.914;2023-07-29T13:52:38;0.88;;;0.77;;
18677;SDS011;9469;51.114;13.914;2023-07-29T13:57:47;1.00;;;0.90;;
18677;SDS011;9469;51.114;13.914;2023-07-29T14:02:52;0.90;;;0.80;;
18677;SDS011;9469;51.114;13.914;2023-07-29T14:07:57;2.47;;;0.73;;
18677;SDS011;9469;51.114;13.914;2023-07-29T14:13:05;1.48;;;0.80;;
18677;SDS011;9469;51.114;13.914;2023-07-29T14:18:12;0.70;;;0.70;;
18677;SDS011;9469;51.114;13.914;2023-07-29T14:23:18;0.80;;;0.80;;
18677;SDS011;9469;51.114;13.914;2023-07-29T14:28:26;1.15;;;0.82;;
18677;SDS011;9469;51.114;13.914;2023-07-29T14:33:32;0.75;;;0.75;;
18677;SDS011;9469;51.114;13.914;2023-07-29T14:38:37;1.25;;;0.90;;
18677;SDS011;9469;51.114;13.914;2023-07-29T14:43:44;1.00;;;0.90;;
18677;SDS011;9469;51.114;13.914;2023-07-29T14:48:52;2.95;;;0.90;;
18677;SDS011;9469;51.114;13.914;2023-07-29T14:53:57;3.35;;;0.77;;
18677;SDS011;9469;51.114;13.914;2023-07-29T14:59:04;1.95;;;0.68;;
18677;SDS011;9469;51.114;13.914;2023-07-29T15:04:10;1.25;;;1.00;;
18677;SDS011;9469;51.114;13.914;2023-07-29T15:09:15;2.72;;;0.68;;
18677;SDS011;9469;51.114;13.914;2023-07-29T15:14:22;1.00;;;0.90;;
18677;SDS011;9469;51.114;13.914;2023-07-29T15:19:27;0.60;;;0.60;;
18677;SDS011;9469;51.114;13.914;2023-07-29T15:24:34;1.23;;;0.77;;
18677;SDS011;9469;51.114;13.914;2023-07-29T15:29:45;0.82;;;0.50;;
18677;SDS011;9469;51.114;13.914;2023-07-29T15:34:51;1.00;;;0.68;;
18677;SDS011;9469;51.114;13.914;2023-07-29T15:39:56;1.02;;;0.70;;
18677;SDS011;9469;51.114;13.914;2023-07-29T15:45:04;1.58;;;0.90;;
18677;SDS011;9469;51.114;13.914;2023-07-29T15:50:10;1.92;;;0.80;;
18677;SDS011;9469;51.114;13.914;2023-07-29T15:55:16;0.85;;;0.70;;
18677;SDS011;9469;51.114;13.914;2023-07-29T16:00:25;0.80;;;0.60;;
18677;SDS011;9469;51.114;13.914;2023-07-29T16:05:30;2.20;;;1.20;;
18677;SDS011;9469;51.114;13.914;2023-07-29T16:10:35;1.05;;;0.60;;
18677;SDS011;9469;51.114;13.914;2023-07-29T16:15:43;1.23;;;0.90;;
18677;SDS011;9469;51.114;13.914;2023-07-29T16:20:48;1.00;;;0.80;;
18677;SDS011;9469;51.114;13.914;2023-07-29T16:25:55;1.75;;;1.23;;
18677;SDS011;9469;51.114;13.914;2023-07-29T16:31:05;1.23;;;1.00;;
18677;SDS011;9469;51.114;13.914;2023-07-29T16:36:10;1.27;;;0.95;;
18677;SDS011;9469;51.114;13.914;2023-07-29T16:41:19;1.95;;;1.15;;
18677;SDS011;9469;51.114;13.914;2023-07-29T16:46:48;1.17;;;1.05;;
18677;SDS011;9469;51.114;13.914;2023-07-29T16:51:53;5.85;;;1.10;;
18677;SDS011;9469;51.114;13.914;2023-07-29T16:56:58;5.93;;;1.23;;
18677;SDS011;9469;51.114;13.914;2023-07-29T17:02:06;10.80;;;2.40;;
18677;SDS011;9469;51.114;13.914;2023-07-29T17:07:12;8.97;;;1.87;;
18677;SDS011;9469;51.114;13.914;2023-07-29T17:12:18;4.10;;;2.30;;
18677;SDS011;9469;51.114;13.914;2023-07-29T17:17:26;5.53;;;1.10;;
18677;SDS011;9469;51.114;13.914;2023-07-29T17:22:32;2.90;;;1.40;;
18677;SDS011;9469;51.114;13.914;2023-07-29T17:27:39;4.27;;;1.63;;
18677;SDS011;9469;51.114;13.914;2023-07-29T17:32:49;4.23;;;1.53;;
18677;SDS011;9469;51.114;13.914;2023-07-29T17:37:56;2.93;;;1.50;;
18677;SDS011;9469;51.114;13.914;2023-07-29T17:43:02;2.60;;;1.20;;
18677;SDS011;9469;51.114;13.914;2023-07-29T17:48:10;4.23;;;1.73;;
18677;SDS011;9469;51.114;13.914;2023-07-29T17:53:15;5.53;;;1.80;;
18677;SDS011;9469;51.114;13.914;2023-07-29T17:58:21;3.03;;;1.70;;
18677;SDS011;9469;51.114;13.914;2023-07-29T18:03:29;2.80;;;1.50;;
18677;SDS011;9469;51.114;13.914;2023-07-29T18:08:35;3.67;;;1.90;;
18677;SDS011;9469;51.114;13.914;2023-07-29T18:13:43;4.37;;;1.93;;
18677;SDS011;9469;51.114;13.914;2023-07-29T18:19:00;1.87;;;1.50;;
18677;SDS011;9469;51.114;13.914;2023-07-29T18:24:05;4.67;;;1.90;;
18677;SDS011;9469;51.114;13.914;2023-07-29T18:29:11;5.63;;;1.97;;
18677;SDS011;9469;51.114;13.914;2023-07-29T18:34:19;3.93;;;1.77;;
18677;SDS011;9469;51.114;13.914;2023-07-29T18:39:28;2.87;;;1.93;;
18677;SDS011;9469;51.114;13.914;2023-07-29T18:44:36;4.23;;;2.30;;
18677;SDS011;9469;51.114;13.914;2023-07-29T18:49:51;3.30;;;2.03;;
18677;SDS011;9469;51.114;13.914;2023-07-29T18:55:02;5.00;;;2.40;;
18677;SDS011;9469;51.114;13.914;2023-07-29T19:00:08;4.17;;;2.30;;
18677;SDS011;9469;51.114;13.914;2023-07-29T19:05:17;3.13;;;1.87;;
18677;SDS011;9469;51.114;13.914;2023-07-29T19:10:22;4.00;;;2.70;;
18677;SDS011;9469;51.114;13.914;2023-07-29T19:15:28;5.30;;;2.67;;
18677;SDS011;9469;51.114;13.914;2023-07-29T19:20:36;3.40;;;2.20;;
18677;SDS011;9469;51.114;13.914;2023-07-29T19:25:44;4.00;;;2.50;;
18677;SDS011;9469;51.114;13.914;2023-07-29T19:30:51;2.83;;;2.03;;
18677;SDS011;9469;51.114;13.914;2023-07-29T19:36:00;3.53;;;2.17;;
18677;SDS011;9469;51.114;13.914;2023-07-29T19:41:06;2.90;;;1.80;;
18677;SDS011;9469;51.114;13.914;2023-07-29T19:46:11;2.83;;;2.17;;
18677;SDS011;9469;51.114;13.914;2023-07-29T19:51:22;5.50;;;2.27;;
18677;SDS011;9469;51.114;13.914;2023-07-29T19:56:32;4.03;;;2.50;;
18677;SDS011;9469;51.114;13.914;2023-07-29T20:01:37;3.37;;;2.23;;
18677;SDS011;9469;51.114;13.914;2023-07-29T20:06:45;5.50;;;2.00;;
18677;SDS011;9469;51.114;13.914;2023-07-29T20:11:56;7.60;;;3.00;;
18677;SDS011;9469;51.114;13.914;2023-07-29T20:17:01;5.77;;;2.80;;
18677;SDS011;9469;51.114;13.914;2023-07-29T20:22:09;4.83;;;2.50;;
18677;SDS011;9469;51.114;13.914;2023-07-29T20:27:15;3.43;;;2.90;;
18677;SDS011;9469;51.114;13.914;2023-07-29T20:32:21;4.00;;;3.03;;
18677;SDS011;9469;51.114;13.914;2023-07-29T20:37:29;5.33;;;3.10;;
18677;SDS011;9469;51.114;13.914;2023-07-29T20:42:34;3.70;;;2.33;;
18677;SDS011;9469;51.114;13.914;2023-07-29T20:47:40;8.03;;;2.97;;
18677;SDS011;9469;51.114;13.914;2023-07-29T20:52:49;5.03;;;2.43;;
18677;SDS011;9469;51.114;13.914;2023-07-29T20:57:54;4.60;;;2.40;;
18677;SDS011;9469;51.114;13.914;2023-07-29T21:03:00;3.77;;;2.57;;
18677;SDS011;9469;51.114;13.914;2023-07-29T21:08:07;3.27;;;2.10;;
18677;SDS011;9469;51.114;13.914;2023-07-29T21:13:12;6.97;;;2.50;;
18677;SDS011;9469;51.114;13.914;2023-07-29T21:18:17;4.17;;;2.50;;
18677;SDS011;9469;51.114;13.914;2023-07-29T21:23:26;5.63;;;2.07;;
18677;SDS011;9469;51.114;13.914;2023-07-29T21:28:31;3.03;;;2.27;;
18677;SDS011;9469;51.114;13.914;2023-07-29T21:33:36;5.93;;;2.20;;
18677;SDS011;9469;51.114;13.914;2023-07-29T21:38:44;5.27;;;2.47;;
18677;SDS011;9469;51.114;13.914;2023-07-29T21:43:49;2.77;;;2.40;;
18677;SDS011;9469;51.114;13.914;2023-07-29T21:48:54;5.97;;;2.70;;
18677;SDS011;9469;51.114;13.914;2023-07-29T21:54:02;6.70;;;2.50;;
18677;SDS011;9469;51.114;13.914;2023-07-29T21:59:07;5.13;;;2.60;;
18677;SDS011;9469;51.114;13.914;2023-07-29T22:04:12;5.03;;;2.77;;
18677;SDS011;9469;51.114;13.914;2023-07-29T22:09:20;4.93;;;2.40;;
18677;SDS011;9469;51.114;13.914;2023-07-29T22:14:25;3.90;;;2.67;;
18677;SDS011;9469;51.114;13.914;2023-07-29T22:19:30;5.07;;;2.30;;
18677;SDS011;9469;51.114;13.914;2023-07-29T22:24:38;9.43;;;2.83;;
18677;SDS011;9469;51.114;13.914;2023-07-29T22:29:43;3.30;;;2.60;;
18677;SDS011;9469;51.114;13.914;2023-07-29T22:34:48;3.67;;;1.97;;
18677;SDS011;9469;51.114;13.914;2023-07-29T22:39:56;5.50;;;2.60;;
18677;SDS011;9469;51.114;13.914;2023-07-29T22:45:01;4.13;;;2.30;;
18677;SDS011;9469;51.114;13.914;2023-07-29T22:50:06;5.87;;;2.50;;
18677;SDS011;9469;51.114;13.914;2023-07-29T22:55:15;5.17;;;2.10;;
18677;SDS011;9469;51.114;13.914;2023-07-29T23:00:20;5.90;;;2.50;;
18677;SDS011;9469;51.114;13.914;2023-07-29T23:05:25;6.10;;;2.33;;
18677;SDS011;9469;51.114;13.914;2023-07-29T23:10:34;5.70;;;2.60;;
18677;SDS011;9469;51.114;13.914;2023-07-29T23:15:40;6.30;;;2.73;;
18677;SDS011;9469;51.114;13.914;2023-07-29T23:20:48;4.80;;;2.40;;
18677;SDS011;9469;51.114;13.914;2023-07-29T23:25:57;2.43;;;2.20;;
18677;SDS011;9469;51.114;13.914;2023-07-29T23:31:02;5.83;;;2.50;;
18677;SDS011;9469;51.114;13.914;2023-07-29T23:36:07;6.00;;;2.90;;
18677;SDS011;9469;51.114;13.914;2023-07-29T23:41:15;6.17;;;2.97;;
18677;SDS011;9469;51.114;13.914;2023-07-29T23:46:20;7.77;;;2.60;;
18677;SDS011;9469;51.114;13.914;2023-07-29T23:51:25;9.07;;;2.80;;
18677;SDS011;9469;51.114;13.914;2023-07-29T23:56:32;5.67;;;2.63;;
